Atlantis — PCDT — position and weather

sailwx.info

Track history (hours):
 
Tides and Currents Weather Stations Pressure Air Temp Water Temp Dewpoint Dewpoint Depression Visibility Wind Speed Wind Dir Waves Ship Positions

Atlantis (Netherlands)

Ship's website: http://www.tallship-company.com/artemis/gb_atlantis.htm

Last reported at 2014-Aug-29 23:27 UTC. Time now 2014-Aug-30 00:25 UTC.
Position N 38°42' W 009°25'.

Length 40 m; draft 4.5 m.

Type: Sailing vessel. MMSI: 246253000.

Date/timePositionNaut miles runAvg speedWind from/ knotsBaromVisibWave heightAir tempDewpointWater temp
2014-Aug-29 23:27N 38°42' W 009°25'0 0.0
2014-Aug-29 22:33N 38°42' W 009°25'0 0.0
2014-Aug-29 21:29N 38°42' W 009°25'0 0.0
2014-Aug-29 20:33N 38°42' W 009°25'0 0.0
2014-Aug-29 19:33N 38°42' W 009°25'0 0.0
2014-Aug-29 18:31N 38°42' W 009°25'0 0.0
2014-Aug-29 17:31N 38°42' W 009°25'0 0.0
2014-Aug-29 16:33N 38°42' W 009°25'0 0.0
2014-Aug-29 15:31N 38°42' W 009°25'0 0.0
2014-Aug-29 14:33N 38°42' W 009°25'0 0.0
2014-Aug-29 13:32N 38°42' W 009°25'0 0.0
2014-Aug-29 12:29N 38°42' W 009°25'0 0.0
2014-Aug-29 11:28N 38°42' W 009°25'0 0.0
2014-Aug-29 10:24N 38°42' W 009°25'0 0.0
2014-Aug-29 09:30N 38°42' W 009°25'0 0.0
2014-Aug-29 08:33N 38°42' W 009°25'0 0.0
2014-Aug-29 07:30N 38°42' W 009°25'0 0.0
2014-Aug-29 06:33N 38°42' W 009°25'0 0.0
2014-Aug-29 05:33N 38°42' W 009°25'0 0.0
2014-Aug-29 04:33N 38°42' W 009°25'0 0.0
2014-Aug-29 03:32N 38°42' W 009°25'0 0.0
2014-Aug-29 02:33N 38°42' W 009°25'0 0.0
2014-Aug-29 01:33N 38°42' W 009°25'0 0.0
2014-Aug-29 00:33N 38°42' W 009°25'0 0.0
2014-Aug-28 23:29N 38°42' W 009°25'0 0.0
2014-Aug-28 22:33N 38°42' W 009°25'0 0.0
2014-Aug-28 21:30N 38°42' W 009°25'0 0.0
2014-Aug-28 20:31N 38°42' W 009°25'0 0.0
2014-Aug-28 19:33N 38°42' W 009°25'0 0.0
2014-Aug-28 18:29N 38°42' W 009°25'0 0.0
2014-Aug-28 17:33N 38°42' W 009°25'0 0.0
2014-Aug-28 16:33N 38°42' W 009°25'0 0.0
2014-Aug-28 15:33N 38°42' W 009°25'0 0.0
2014-Aug-28 14:33N 38°42' W 009°25'0 0.0
2014-Aug-28 13:32N 38°42' W 009°25'0 0.0
2014-Aug-28 12:33N 38°42' W 009°25'0 0.0
2014-Aug-28 11:33N 38°42' W 009°25'1 0.7
2014-Aug-28 09:31N 38°40' W 009°26'  
2014-Aug-22 10:12N 50°36' E 000°03'4 5.8
2014-Aug-22 09:29N 50°38' E 000°10'5 5.0
2014-Aug-22 08:33N 50°39' E 000°17'4 4.4
2014-Aug-22 07:33N 50°40' E 000°23'4 4.1
2014-Aug-22 06:33N 50°42' E 000°29'4 3.8
2014-Aug-22 05:33N 50°43' E 000°35'4 4.1
2014-Aug-22 04:33N 50°44' E 000°41'5 5.2
2014-Aug-22 03:33N 50°46' E 000°49'5 5.3
2014-Aug-22 02:33N 50°49' E 000°56'22 5.4
2014-Aug-21 22:33N 51°02' E 001°23'4 3.6
2014-Aug-21 21:33N 51°04' E 001°27'3 3.1
2014-Aug-21 20:33N 51°06' E 001°32'3 2.9
2014-Aug-21 19:33N 51°07' E 001°36'3 3.0
2014-Aug-21 18:33N 51°10' E 001°39'4 4.1
2014-Aug-21 17:33N 51°13' E 001°43'5 4.9
2014-Aug-21 16:33N 51°17' E 001°48'5 5.2
2014-Aug-21 15:33N 51°21' E 001°51'7 6.8
2014-Aug-21 14:33N 51°28' E 001°55'7 6.5
2014-Aug-21 13:32N 51°33' E 002°01'57 7.1
2014-Aug-21 05:33N 52°13' E 003°08'9 8.7
2014-Aug-21 04:33N 52°18' E 003°19'45 7.4
2014-Aug-20 22:31N 52°45' E 004°17'11 7.8
2014-Aug-20 21:07N 52°51' E 004°32'5 8.1
2014-Aug-20 20:33N 52°54' E 004°38'6 6.2
2014-Aug-20 19:33N 52°57' E 004°47'0 0.1
2014-Aug-20 18:33N 52°57' E 004°47'0 0.0
2014-Aug-20 17:33N 52°57' E 004°47'0 0.0
2014-Aug-20 16:33N 52°57' E 004°47'0 0.0
2014-Aug-20 15:33N 52°57' E 004°47'0 0.0
2014-Aug-20 14:33N 52°57' E 004°47'0 0.0
2014-Aug-20 13:33N 52°57' E 004°47'0 0.0
2014-Aug-20 12:31N 52°57' E 004°47'0 0.0
2014-Aug-20 11:32N 52°57' E 004°47'0 0.0
2014-Aug-20 10:33N 52°57' E 004°47'0 0.0
2014-Aug-20 09:31N 52°57' E 004°47'0 0.0
2014-Aug-20 08:33N 52°57' E 004°47'0 0.0
2014-Aug-20 07:29N 52°57' E 004°47'0 0.0
2014-Aug-20 06:33N 52°57' E 004°47'0 0.0
2014-Aug-20 05:10N 52°57' E 004°47'2 2.5
2014-Aug-20 04:31N 52°58' E 004°45'6 6.3
2014-Aug-20 03:33N 52°53' E 004°38'7 6.2
2014-Aug-20 02:25N 52°60' E 004°34'9 7.6
2014-Aug-20 01:15N 53°08' E 004°40'5 7.2
2014-Aug-20 00:32N 53°12' E 004°45'7 6.9
2014-Aug-19 23:33N 53°18' E 004°51'  
Track history (hours):
 
Tides and Currents Weather Stations Pressure Air Temp Water Temp Dewpoint Dewpoint Depression Visibility Wind Speed Wind Dir Waves Ship Positions

Atlantis (Netherlands)

Ship's website: http://www.tallship-company.com/artemis/gb_atlantis.htm

Last reported at 2014-Aug-29 23:27 UTC. Time now 2014-Aug-30 00:25 UTC.
Position N 38°42' W 009°25'.

Length 40 m; draft 4.5 m.

Type: Sailing vessel. MMSI: 246253000.

Date/timePositionNaut miles runAvg speedWind from/ knotsBaromVisibWave heightAir tempDewpointWater temp
2014-Aug-29 23:27N 38°42' W 009°25'0 0.0
2014-Aug-29 22:33N 38°42' W 009°25'0 0.0
2014-Aug-29 21:29N 38°42' W 009°25'0 0.0
2014-Aug-29 20:33N 38°42' W 009°25'0 0.0
2014-Aug-29 19:33N 38°42' W 009°25'0 0.0
2014-Aug-29 18:31N 38°42' W 009°25'0 0.0
2014-Aug-29 17:31N 38°42' W 009°25'0 0.0
2014-Aug-29 16:33N 38°42' W 009°25'0 0.0
2014-Aug-29 15:31N 38°42' W 009°25'0 0.0
2014-Aug-29 14:33N 38°42' W 009°25'0 0.0
2014-Aug-29 13:32N 38°42' W 009°25'0 0.0
2014-Aug-29 12:29N 38°42' W 009°25'0 0.0
2014-Aug-29 11:28N 38°42' W 009°25'0 0.0
2014-Aug-29 10:24N 38°42' W 009°25'0 0.0
2014-Aug-29 09:30N 38°42' W 009°25'0 0.0
2014-Aug-29 08:33N 38°42' W 009°25'0 0.0
2014-Aug-29 07:30N 38°42' W 009°25'0 0.0
2014-Aug-29 06:33N 38°42' W 009°25'0 0.0
2014-Aug-29 05:33N 38°42' W 009°25'0 0.0
2014-Aug-29 04:33N 38°42' W 009°25'0 0.0
2014-Aug-29 03:32N 38°42' W 009°25'0 0.0
2014-Aug-29 02:33N 38°42' W 009°25'0 0.0
2014-Aug-29 01:33N 38°42' W 009°25'0 0.0
2014-Aug-29 00:33N 38°42' W 009°25'0 0.0
2014-Aug-28 23:29N 38°42' W 009°25'0 0.0
2014-Aug-28 22:33N 38°42' W 009°25'0 0.0
2014-Aug-28 21:30N 38°42' W 009°25'0 0.0
2014-Aug-28 20:31N 38°42' W 009°25'0 0.0
2014-Aug-28 19:33N 38°42' W 009°25'0 0.0
2014-Aug-28 18:29N 38°42' W 009°25'0 0.0
2014-Aug-28 17:33N 38°42' W 009°25'0 0.0
2014-Aug-28 16:33N 38°42' W 009°25'0 0.0
2014-Aug-28 15:33N 38°42' W 009°25'0 0.0
2014-Aug-28 14:33N 38°42' W 009°25'0 0.0
2014-Aug-28 13:32N 38°42' W 009°25'0 0.0
2014-Aug-28 12:33N 38°42' W 009°25'0 0.0
2014-Aug-28 11:33N 38°42' W 009°25'1 0.7
2014-Aug-28 09:31N 38°40' W 009°26'  
2014-Aug-22 10:12N 50°36' E 000°03'4 5.8
2014-Aug-22 09:29N 50°38' E 000°10'5 5.0
2014-Aug-22 08:33N 50°39' E 000°17'4 4.4
2014-Aug-22 07:33N 50°40' E 000°23'4 4.1
2014-Aug-22 06:33N 50°42' E 000°29'4 3.8
2014-Aug-22 05:33N 50°43' E 000°35'4 4.1
2014-Aug-22 04:33N 50°44' E 000°41'5 5.2
2014-Aug-22 03:33N 50°46' E 000°49'5 5.3
2014-Aug-22 02:33N 50°49' E 000°56'22 5.4
2014-Aug-21 22:33N 51°02' E 001°23'4 3.6
2014-Aug-21 21:33N 51°04' E 001°27'3 3.1
2014-Aug-21 20:33N 51°06' E 001°32'3 2.9
2014-Aug-21 19:33N 51°07' E 001°36'3 3.0
2014-Aug-21 18:33N 51°10' E 001°39'4 4.1
2014-Aug-21 17:33N 51°13' E 001°43'5 4.9
2014-Aug-21 16:33N 51°17' E 001°48'5 5.2
2014-Aug-21 15:33N 51°21' E 001°51'7 6.8
2014-Aug-21 14:33N 51°28' E 001°55'7 6.5
2014-Aug-21 13:32N 51°33' E 002°01'57 7.1
2014-Aug-21 05:33N 52°13' E 003°08'9 8.7
2014-Aug-21 04:33N 52°18' E 003°19'45 7.4
2014-Aug-20 22:31N 52°45' E 004°17'11 7.8
2014-Aug-20 21:07N 52°51' E 004°32'5 8.1
2014-Aug-20 20:33N 52°54' E 004°38'6 6.2
2014-Aug-20 19:33N 52°57' E 004°47'0 0.1
2014-Aug-20 18:33N 52°57' E 004°47'0 0.0
2014-Aug-20 17:33N 52°57' E 004°47'0 0.0
2014-Aug-20 16:33N 52°57' E 004°47'0 0.0
2014-Aug-20 15:33N 52°57' E 004°47'0 0.0
2014-Aug-20 14:33N 52°57' E 004°47'0 0.0
2014-Aug-20 13:33N 52°57' E 004°47'0 0.0
2014-Aug-20 12:31N 52°57' E 004°47'0 0.0
2014-Aug-20 11:32N 52°57' E 004°47'0 0.0
2014-Aug-20 10:33N 52°57' E 004°47'0 0.0
2014-Aug-20 09:31N 52°57' E 004°47'0 0.0
2014-Aug-20 08:33N 52°57' E 004°47'0 0.0
2014-Aug-20 07:29N 52°57' E 004°47'0 0.0
2014-Aug-20 06:33N 52°57' E 004°47'0 0.0
2014-Aug-20 05:10N 52°57' E 004°47'2 2.5
2014-Aug-20 04:31N 52°58' E 004°45'6 6.3
2014-Aug-20 03:33N 52°53' E 004°38'7 6.2
2014-Aug-20 02:25N 52°60' E 004°34'9 7.6
2014-Aug-20 01:15N 53°08' E 004°40'5 7.2
2014-Aug-20 00:32N 53°12' E 004°45'7 6.9
2014-Aug-19 23:33N 53°18' E 004°51'  

Dump ship's entire track history